createdAt,value
2023-05-16T00:02:27.066Z,99.90
2023-05-16T00:04:55.161Z,99.90
2023-05-16T00:07:23.299Z,99.90
2023-05-16T00:09:54.507Z,99.90
2023-05-16T00:12:22.825Z,99.90
2023-05-16T00:14:51.440Z,99.90
2023-05-16T00:17:20.451Z,99.90
2023-05-16T00:19:49.877Z,99.90
2023-05-16T00:22:18.641Z,99.90
2023-05-16T00:24:46.802Z,99.90
2023-05-16T00:27:40.667Z,99.90
2023-05-16T00:30:15.279Z,99.90
2023-05-16T00:32:43.861Z,99.90
2023-05-16T00:35:13.353Z,99.90
2023-05-16T00:37:44.472Z,99.90
2023-05-16T00:40:13.263Z,99.90
2023-05-16T00:42:41.389Z,99.90
2023-05-16T00:45:11.212Z,99.90
2023-05-16T00:47:39.433Z,99.90
2023-05-16T00:50:08.801Z,99.90
2023-05-16T00:52:38.348Z,99.90
2023-05-16T00:55:10.280Z,99.90
2023-05-16T00:57:39.299Z,99.90
2023-05-16T01:00:10.529Z,99.90
2023-05-16T01:02:39.577Z,99.90
2023-05-16T01:05:09.313Z,99.90
2023-05-16T01:07:38.909Z,99.90
2023-05-16T01:10:10.606Z,99.90
2023-05-16T01:12:49.463Z,99.90
2023-05-16T01:15:27.488Z,99.90
2023-05-16T01:18:08.007Z,99.90
2023-05-16T01:20:49.288Z,99.90
2023-05-16T01:23:43.155Z,99.90
2023-05-16T01:26:17.975Z,99.90
2023-05-16T01:28:47.890Z,99.90
2023-05-16T01:31:16.364Z,99.90
2023-05-16T01:33:46.146Z,99.90
2023-05-16T01:36:25.312Z,99.90
2023-05-16T01:39:07.247Z,99.90
2023-05-16T01:41:48.517Z,99.90
2023-05-16T01:44:24.556Z,99.90
2023-05-16T01:47:00.545Z,99.90
2023-05-16T01:49:34.705Z,99.90
2023-05-16T01:52:09.431Z,99.90
2023-05-16T01:54:43.152Z,99.90
2023-05-16T01:57:15.070Z,99.90
2023-05-16T01:59:43.824Z,99.90
2023-05-16T02:02:11.884Z,99.90
2023-05-16T02:04:39.974Z,99.90
2023-05-16T02:07:08.548Z,99.90
2023-05-16T02:09:36.690Z,99.90
2023-05-16T02:12:06.185Z,99.90
2023-05-16T02:14:35.843Z,99.90
2023-05-16T02:17:07.387Z,99.90
2023-05-16T02:19:35.589Z,99.90
2023-05-16T02:22:03.676Z,99.90
2023-05-16T02:24:34.823Z,99.90
2023-05-16T02:27:03.736Z,99.90
2023-05-16T02:29:31.943Z,99.90
2023-05-16T02:32:01.306Z,99.90
2023-05-16T02:34:29.417Z,99.90
2023-05-16T02:36:57.485Z,99.90
2023-05-16T02:39:25.590Z,99.90
2023-05-16T02:41:53.716Z,99.90
2023-05-16T02:44:21.909Z,99.90
2023-05-16T02:46:50.061Z,99.90
2023-05-16T02:49:19.470Z,99.90
2023-05-16T02:51:47.856Z,99.90
2023-05-16T02:54:16.110Z,99.90
2023-05-16T02:56:44.518Z,99.90
2023-05-16T02:59:13.717Z,99.90
2023-05-16T03:01:41.926Z,99.90
2023-05-16T03:04:10.188Z,99.90
2023-05-16T03:06:40.044Z,99.90
2023-05-16T03:09:08.687Z,99.90
2023-05-16T03:11:37.740Z,99.90
2023-05-16T03:14:05.964Z,99.90
2023-05-16T03:16:34.193Z,99.90
2023-05-16T03:19:02.323Z,99.90
2023-05-16T03:21:30.439Z,99.90
2023-05-16T03:24:00.082Z,99.90
2023-05-16T03:26:28.599Z,99.90
2023-05-16T03:28:56.701Z,99.90
2023-05-16T03:31:24.816Z,99.90
2023-05-16T03:33:53.047Z,99.90
2023-05-16T03:36:24.236Z,99.90
2023-05-16T03:38:52.505Z,99.90
2023-05-16T03:41:23.015Z,99.90
2023-05-16T03:43:51.109Z,99.90
2023-05-16T03:46:19.591Z,99.90
2023-05-16T03:48:47.756Z,99.90
2023-05-16T03:51:16.121Z,99.90
2023-05-16T03:53:44.245Z,99.90
2023-05-16T03:56:12.567Z,99.90
2023-05-16T03:58:42.411Z,99.90
2023-05-16T04:01:10.493Z,99.90
2023-05-16T04:03:38.890Z,99.90
2023-05-16T04:06:08.322Z,99.90
2023-05-16T04:08:36.508Z,99.90
2023-05-16T04:11:05.299Z,99.90
2023-05-16T04:13:33.441Z,99.90
2023-05-16T04:16:02.958Z,99.90
2023-05-16T04:18:31.157Z,99.90
2023-05-16T04:20:59.322Z,99.90
2023-05-16T04:23:36.370Z,99.90
2023-05-16T04:26:04.929Z,99.90
2023-05-16T04:28:32.988Z,99.90
2023-05-16T04:31:03.050Z,99.90
2023-05-16T04:33:31.323Z,99.90
2023-05-16T04:36:00.084Z,99.90
2023-05-16T04:38:28.186Z,99.90
2023-05-16T04:40:56.559Z,99.90
2023-05-16T04:43:24.805Z,99.90
2023-05-16T04:46:12.129Z,99.90
2023-05-16T04:48:47.469Z,99.90
2023-05-16T04:54:04.185Z,99.90
2023-05-16T04:56:32.320Z,99.90
2023-05-16T04:59:04.079Z,99.90
2023-05-16T05:01:41.874Z,99.90
2023-05-16T05:04:11.081Z,99.90
2023-05-16T05:07:02.598Z,99.90
2023-05-16T05:09:31.038Z,99.90
2023-05-16T05:11:59.156Z,99.90
2023-05-16T05:14:27.339Z,99.90
2023-05-16T05:17:02.721Z,99.90
2023-05-16T05:19:31.027Z,99.90
2023-05-16T05:22:01.581Z,99.90
2023-05-16T05:24:29.701Z,99.90
2023-05-16T05:26:58.364Z,99.90
2023-05-16T05:29:26.496Z,99.90
2023-05-16T05:31:55.954Z,99.90
2023-05-16T05:34:24.099Z,99.90
2023-05-16T05:36:52.168Z,99.90
2023-05-16T05:39:20.466Z,99.90
2023-05-16T05:41:48.727Z,99.90
2023-05-16T05:44:16.851Z,99.90
2023-05-16T05:46:48.212Z,99.90
2023-05-16T05:49:17.723Z,99.90
2023-05-16T05:51:45.975Z,99.90
2023-05-16T05:54:14.119Z,99.90
2023-05-16T05:56:42.329Z,99.90
2023-05-16T05:59:10.916Z,99.90
2023-05-16T06:01:39.603Z,99.90
2023-05-16T06:04:07.763Z,99.90
2023-05-16T06:06:38.162Z,99.90
2023-05-16T06:09:06.374Z,99.90
2023-05-16T06:11:34.436Z,99.90
2023-05-16T06:14:02.602Z,99.90
2023-05-16T06:16:30.741Z,99.90
2023-05-16T06:18:58.985Z,99.90
2023-05-16T06:21:27.215Z,99.90
2023-05-16T06:23:56.743Z,99.90
2023-05-16T06:26:24.854Z,99.90
2023-05-16T06:28:52.974Z,99.90
2023-05-16T06:31:21.200Z,99.90
2023-05-16T06:33:49.500Z,99.90
2023-05-16T06:36:17.619Z,99.90
2023-05-16T06:38:45.752Z,99.90
2023-05-16T06:41:15.186Z,99.90
2023-05-16T06:43:43.633Z,99.90
2023-05-16T06:46:11.786Z,99.90
2023-05-16T06:48:40.001Z,99.90
2023-05-16T06:51:08.147Z,99.90
2023-05-16T06:53:39.072Z,99.90
2023-05-16T06:56:07.750Z,99.90
2023-05-16T06:58:37.253Z,99.90
2023-05-16T07:01:05.626Z,99.90
2023-05-16T07:03:36.580Z,99.90
2023-05-16T07:06:05.137Z,99.90
2023-05-16T07:08:33.321Z,99.90
2023-05-16T07:11:01.541Z,99.90
2023-05-16T07:13:29.667Z,99.90
2023-05-16T07:15:59.230Z,99.90
2023-05-16T07:18:27.392Z,99.90
2023-05-16T07:20:55.607Z,99.90
2023-05-16T07:23:23.770Z,99.90
2023-05-16T07:25:53.227Z,99.90
2023-05-16T07:28:24.129Z,99.90
2023-05-16T07:30:52.413Z,99.90
2023-05-16T07:33:21.988Z,99.90
2023-05-16T07:35:51.156Z,99.90
2023-05-16T07:38:19.884Z,99.90
2023-05-16T07:40:48.242Z,99.90
2023-05-16T07:43:16.418Z,99.90
2023-05-16T07:45:44.791Z,99.90
2023-05-16T07:48:13.349Z,99.90
2023-05-16T07:50:44.692Z,99.90
2023-05-16T07:53:12.897Z,99.90
2023-05-16T07:55:41.238Z,99.90
2023-05-16T07:58:09.498Z,99.90
2023-05-16T08:00:37.689Z,99.90
2023-05-16T08:03:06.709Z,99.90
2023-05-16T08:05:35.133Z,99.90
2023-05-16T08:08:04.809Z,99.90
2023-05-16T08:10:33.121Z,99.90
2023-05-16T08:13:01.463Z,99.90
2023-05-16T08:15:30.250Z,99.90
2023-05-16T08:18:00.200Z,99.90
2023-05-16T08:20:29.042Z,99.90
2023-05-16T08:22:57.451Z,99.90
2023-05-16T08:25:27.629Z,99.90
2023-05-16T08:27:56.012Z,99.90
2023-05-16T08:30:24.174Z,99.90
2023-05-16T08:32:52.527Z,99.90
2023-05-16T08:35:21.012Z,99.90
2023-05-16T08:37:49.262Z,99.90
2023-05-16T08:40:17.824Z,99.90
2023-05-16T08:42:47.984Z,99.90
2023-05-16T08:45:16.355Z,99.90
2023-05-16T08:47:47.632Z,99.90
2023-05-16T08:50:17.300Z,99.90
2023-05-16T08:52:48.538Z,99.90
2023-05-16T08:55:18.032Z,99.90
2023-05-16T08:57:48.533Z,99.90
2023-05-16T09:00:18.543Z,99.90
2023-05-16T09:02:47.190Z,99.90
2023-05-16T09:05:18.597Z,99.90
2023-05-16T09:07:47.464Z,99.90
2023-05-16T09:10:15.817Z,99.90
2023-05-16T09:12:44.440Z,99.90
2023-05-16T09:15:14.129Z,99.90
2023-05-16T09:17:46.665Z,99.90
2023-05-16T09:20:17.556Z,99.90
2023-05-16T09:22:54.760Z,99.90
2023-05-16T09:27:56.659Z,99.90
2023-05-16T09:30:31.556Z,99.90
2023-05-16T09:33:00.711Z,99.90
2023-05-16T09:38:00.612Z,99.90
2023-05-16T09:40:28.836Z,99.90
2023-05-16T09:43:05.726Z,99.90
2023-05-16T09:45:37.172Z,99.90
2023-05-16T09:48:09.315Z,99.90
2023-05-16T09:50:39.027Z,99.90
2023-05-16T09:53:07.716Z,99.90
2023-05-16T09:55:36.419Z,99.90
2023-05-16T09:58:04.683Z,99.90
2023-05-16T10:00:35.712Z,99.90
2023-05-16T10:03:06.132Z,99.90
2023-05-16T10:05:36.409Z,99.90
2023-05-16T10:08:06.128Z,99.90
2023-05-16T10:10:40.117Z,99.90
2023-05-16T10:13:10.817Z,99.90
2023-05-16T10:15:41.171Z,99.90
2023-05-16T10:18:14.438Z,99.90
2023-05-16T10:20:49.034Z,99.90
2023-05-16T10:23:22.462Z,99.90
2023-05-16T10:25:51.249Z,99.90
2023-05-16T10:28:20.069Z,99.90
2023-05-16T10:30:50.592Z,99.90
2023-05-16T10:33:20.446Z,99.90
2023-05-16T10:35:49.236Z,99.90
2023-05-16T10:38:20.423Z,99.90
2023-05-16T10:40:50.174Z,99.90
2023-05-16T10:43:26.732Z,99.90
2023-05-16T10:46:04.981Z,99.80
2023-05-16T10:48:36.865Z,99.90
2023-05-16T10:51:36.403Z,99.90
2023-05-16T10:54:09.467Z,99.90
2023-05-16T10:56:38.819Z,99.80
2023-05-16T10:59:26.137Z,99.90
2023-05-16T11:01:57.626Z,99.50
2023-05-16T11:04:49.750Z,99.90
2023-05-16T11:07:21.015Z,99.90
2023-05-16T11:10:05.544Z,99.80
2023-05-16T11:12:55.729Z,99.90
2023-05-16T11:15:28.305Z,98.40
2023-05-16T11:18:09.894Z,99.00
2023-05-16T11:20:40.142Z,97.30
2023-05-16T11:23:24.018Z,98.50
2023-05-16T11:25:56.381Z,97.00
2023-05-16T11:28:30.080Z,98.60
2023-05-16T11:31:01.031Z,98.30
2023-05-16T11:33:36.940Z,98.80
2023-05-16T11:38:45.218Z,99.00
2023-05-16T11:41:15.518Z,98.90
2023-05-16T11:43:46.380Z,99.60
2023-05-16T11:46:16.539Z,98.40
2023-05-16T11:48:47.544Z,99.40
2023-05-16T11:51:20.234Z,98.80
2023-05-16T11:53:50.877Z,98.70
2023-05-16T11:56:19.642Z,96.10
2023-05-16T11:58:51.865Z,96.60
2023-05-16T12:01:20.275Z,96.30
2023-05-16T12:03:59.709Z,96.30
2023-05-16T12:06:31.137Z,96.80
2023-05-16T12:08:59.452Z,96.90
2023-05-16T12:11:27.861Z,97.10
2023-05-16T12:13:56.323Z,96.70
2023-05-16T12:16:25.254Z,97.20
2023-05-16T12:18:53.827Z,96.10
2023-05-16T12:21:23.642Z,96.40
2023-05-16T12:23:56.453Z,97.30
2023-05-16T12:26:32.126Z,97.10
2023-05-16T12:29:03.465Z,96.90
2023-05-16T12:31:37.720Z,95.70
2023-05-16T12:34:06.068Z,94.40
2023-05-16T12:36:36.801Z,95.00
2023-05-16T12:39:05.749Z,95.40
2023-05-16T12:41:34.257Z,95.60
2023-05-16T12:44:13.235Z,95.60
2023-05-16T12:46:51.477Z,96.20
2023-05-16T12:49:34.677Z,95.70
2023-05-16T12:52:34.921Z,94.40
2023-05-16T12:55:29.660Z,94.40
2023-05-16T12:58:12.929Z,94.90
2023-05-16T13:00:54.088Z,94.50
2023-05-16T13:03:38.462Z,93.70
2023-05-16T13:06:23.904Z,92.60
2023-05-16T13:09:18.803Z,90.10
2023-05-16T13:11:47.457Z,90.60
2023-05-16T13:14:17.449Z,91.60
2023-05-16T13:16:48.187Z,91.30
2023-05-16T13:19:23.187Z,92.60
2023-05-16T13:21:51.736Z,92.90
2023-05-16T13:24:21.820Z,92.20
2023-05-16T13:26:52.348Z,92.10
2023-05-16T13:29:33.884Z,91.80
2023-05-16T13:32:02.483Z,91.40
2023-05-16T13:37:57.272Z,89.30
2023-05-16T13:45:15.674Z,89.70
2023-05-16T13:52:54.172Z,89.00
2023-05-16T14:03:59.889Z,82.30
2023-05-16T14:06:30.436Z,85.30
2023-05-16T14:09:39.963Z,86.00
2023-05-16T14:13:14.819Z,85.20
2023-05-16T14:15:57.449Z,84.60
2023-05-16T14:19:30.033Z,87.60
2023-05-16T14:26:25.531Z,86.60
2023-05-16T14:28:55.363Z,87.30
2023-05-16T14:31:24.011Z,88.30
2023-05-16T14:33:52.365Z,87.90
2023-05-16T14:36:57.816Z,88.80
2023-05-16T14:40:09.065Z,86.00
2023-05-16T14:42:37.643Z,85.60
2023-05-16T14:45:12.366Z,87.60
2023-05-16T14:47:40.894Z,87.20
2023-05-16T14:50:10.776Z,87.40
2023-05-16T14:52:41.077Z,86.40
2023-05-16T14:55:11.180Z,86.70
2023-05-16T14:57:41.756Z,87.60
2023-05-16T15:00:17.468Z,87.40
2023-05-16T15:02:46.151Z,87.70
2023-05-16T15:05:23.550Z,88.90
2023-05-16T15:08:35.745Z,87.70
2023-05-16T15:11:05.756Z,87.50
2023-05-16T15:13:34.256Z,87.80
2023-05-16T15:16:02.757Z,88.00
2023-05-16T15:18:31.099Z,88.90
2023-05-16T15:20:59.453Z,88.80
2023-05-16T15:23:28.299Z,89.10
2023-05-16T15:25:56.692Z,89.00
2023-05-16T15:28:26.424Z,88.50
2023-05-16T15:30:54.783Z,89.80
2023-05-16T15:33:34.829Z,88.60
2023-05-16T15:36:03.212Z,88.40
2023-05-16T15:38:31.491Z,89.00
2023-05-16T15:41:18.210Z,88.90
2023-05-16T15:43:49.704Z,89.60
2023-05-16T15:46:18.223Z,89.90
2023-05-16T15:48:46.841Z,90.00
2023-05-16T15:51:16.147Z,90.10
2023-05-16T15:53:44.720Z,90.30
2023-05-16T15:56:13.080Z,90.50
2023-05-16T15:58:41.510Z,90.60
2023-05-16T16:01:11.431Z,90.70
2023-05-16T16:03:40.182Z,90.90
2023-05-16T16:06:08.832Z,91.00
2023-05-16T16:08:37.137Z,91.00
2023-05-16T16:11:05.860Z,91.10
2023-05-16T16:13:34.269Z,91.10
2023-05-16T16:16:02.589Z,91.30
2023-05-16T16:18:49.891Z,91.30
2023-05-16T16:21:20.709Z,91.40
2023-05-16T16:23:49.285Z,91.60
2023-05-16T16:26:17.905Z,91.70
2023-05-16T16:28:50.239Z,91.70
2023-05-16T16:31:21.387Z,91.70
2023-05-16T16:33:54.283Z,91.80
2023-05-16T16:36:25.570Z,91.90
2023-05-16T16:39:07.902Z,92.00
2023-05-16T16:41:36.190Z,92.10
2023-05-16T16:44:23.104Z,92.20
2023-05-16T16:46:54.708Z,92.50
2023-05-16T16:50:02.452Z,92.70
2023-05-16T16:52:30.825Z,92.80
2023-05-16T16:54:59.412Z,92.90
2023-05-16T16:57:28.175Z,93.00
2023-05-16T16:59:59.573Z,93.00
2023-05-16T17:02:30.825Z,92.90
2023-05-16T17:05:06.977Z,93.00
2023-05-16T17:08:07.127Z,93.10
2023-05-16T17:10:35.442Z,93.10
2023-05-16T17:13:10.244Z,93.10
2023-05-16T17:15:39.226Z,93.10
2023-05-16T17:18:07.974Z,93.20
2023-05-16T17:20:55.993Z,93.10
2023-05-16T17:23:44.133Z,93.20
2023-05-16T17:26:13.972Z,93.30
2023-05-16T17:31:26.182Z,93.50
2023-05-16T17:33:54.662Z,93.60
2023-05-16T17:37:45.808Z,93.50
2023-05-16T17:40:17.649Z,93.70
2023-05-16T17:42:46.848Z,93.70
2023-05-16T17:45:16.623Z,93.80
2023-05-16T17:47:44.957Z,94.00
2023-05-16T17:50:16.368Z,94.20
2023-05-16T17:53:09.138Z,94.30
2023-05-16T17:56:54.828Z,94.30
2023-05-16T17:59:23.125Z,94.30
2023-05-16T18:03:17.711Z,94.60
2023-05-16T18:05:49.477Z,94.60
2023-05-16T18:08:20.375Z,94.70
2023-05-16T18:10:51.666Z,94.80
2023-05-16T18:13:23.746Z,94.70
2023-05-16T18:15:52.532Z,94.70
2023-05-16T18:18:20.968Z,94.70
2023-05-16T18:20:50.780Z,94.70
2023-05-16T18:23:19.116Z,94.50
2023-05-16T18:25:47.527Z,94.60
2023-05-16T18:28:16.219Z,94.60
2023-05-16T18:31:05.490Z,94.60
2023-05-16T18:33:37.009Z,94.40
2023-05-16T18:36:05.967Z,94.40
2023-05-16T18:38:39.145Z,94.40
2023-05-16T18:41:38.861Z,94.40
2023-05-16T18:44:34.917Z,94.40
2023-05-16T18:47:46.694Z,94.40
2023-05-16T18:50:54.920Z,94.50
2023-05-16T18:53:35.844Z,94.60
2023-05-16T18:56:04.726Z,94.70
2023-05-16T18:58:33.036Z,94.70
2023-05-16T19:01:01.760Z,94.80
2023-05-16T19:03:31.578Z,94.90
2023-05-16T19:05:59.944Z,94.90
2023-05-16T19:08:40.361Z,94.90
2023-05-16T19:11:15.727Z,95.20
2023-05-16T19:14:27.252Z,95.10
2023-05-16T19:16:55.532Z,95.30
2023-05-16T19:19:28.006Z,95.40
2023-05-16T19:21:57.967Z,95.40
2023-05-16T19:24:26.287Z,95.50
2023-05-16T19:26:54.373Z,95.60
2023-05-16T19:29:28.437Z,95.70
2023-05-16T19:32:17.128Z,95.80
2023-05-16T19:34:46.675Z,96.00
2023-05-16T19:37:17.998Z,96.00
2023-05-16T19:39:49.184Z,96.20
2023-05-16T19:42:17.505Z,96.10
2023-05-16T19:45:10.037Z,96.20
2023-05-16T19:47:40.933Z,96.30
2023-05-16T19:50:41.963Z,96.40
2023-05-16T19:53:13.902Z,96.50
2023-05-16T19:56:07.102Z,96.40
2023-05-16T19:58:47.069Z,96.70
2023-05-16T20:01:18.210Z,96.70
2023-05-16T20:03:49.119Z,96.60
2023-05-16T20:06:18.590Z,96.60
2023-05-16T20:08:49.864Z,96.60
2023-05-16T20:11:23.986Z,96.70
2023-05-16T20:13:52.206Z,96.90
2023-05-16T20:16:39.803Z,96.80
2023-05-16T20:19:08.018Z,97.10
2023-05-16T20:21:37.568Z,97.10
2023-05-16T20:24:17.693Z,97.30
2023-05-16T20:26:49.563Z,97.40
2023-05-16T20:29:17.650Z,97.60
2023-05-16T20:31:45.821Z,97.80
2023-05-16T20:34:14.079Z,97.90
2023-05-16T20:36:43.518Z,98.10
2023-05-16T20:39:11.692Z,98.10
2023-05-16T20:41:39.901Z,98.30
2023-05-16T20:44:10.637Z,98.30
2023-05-16T20:46:40.384Z,98.40
2023-05-16T20:49:10.857Z,98.50
2023-05-16T20:51:47.224Z,98.60
2023-05-16T20:54:29.221Z,98.70
2023-05-16T20:57:02.504Z,98.80
2023-05-16T20:59:30.718Z,98.90
2023-05-16T21:01:59.148Z,99.00
2023-05-16T21:04:27.452Z,99.10
2023-05-16T21:06:57.086Z,99.20
2023-05-16T21:09:25.193Z,99.30
2023-05-16T21:11:53.293Z,99.40
2023-05-16T21:14:21.407Z,99.50
2023-05-16T21:16:49.570Z,99.60
2023-05-16T21:19:17.798Z,99.60
2023-05-16T21:21:46.006Z,99.70
2023-05-16T21:24:18.024Z,99.80
2023-05-16T21:26:46.202Z,99.90
2023-05-16T21:29:14.421Z,99.90
2023-05-16T21:31:42.663Z,99.90
2023-05-16T21:34:12.003Z,99.90
2023-05-16T21:36:40.656Z,99.90
2023-05-16T21:39:09.131Z,99.90
2023-05-16T21:41:38.601Z,99.90
2023-05-16T21:44:07.269Z,99.90
2023-05-16T21:46:35.582Z,99.90
2023-05-16T21:49:03.784Z,99.90
2023-05-16T21:51:32.059Z,99.90
2023-05-16T21:54:00.148Z,99.90
2023-05-16T21:56:28.469Z,99.90
2023-05-16T21:58:58.384Z,99.90
2023-05-16T22:01:28.142Z,99.90
2023-05-16T22:03:57.229Z,99.90
2023-05-16T22:06:25.811Z,99.90
2023-05-16T22:09:10.144Z,99.90
2023-05-16T22:11:38.336Z,99.90
2023-05-16T22:14:07.735Z,99.90
2023-05-16T22:16:35.817Z,99.90
2023-05-16T22:19:04.189Z,99.90
2023-05-16T22:21:32.300Z,99.90
2023-05-16T22:24:00.404Z,99.90
2023-05-16T22:26:30.682Z,99.90
2023-05-16T22:28:58.886Z,99.90
2023-05-16T22:31:28.304Z,99.90
2023-05-16T22:33:56.542Z,99.90
2023-05-16T22:36:24.802Z,99.90
2023-05-16T22:38:52.925Z,99.90
2023-05-16T22:41:21.154Z,99.90
2023-05-16T22:43:49.245Z,99.90
2023-05-16T22:46:17.437Z,99.90
2023-05-16T22:48:47.247Z,99.90
2023-05-16T22:51:15.314Z,99.90
2023-05-16T22:53:43.398Z,99.90
2023-05-16T22:56:11.466Z,99.90
2023-05-16T22:58:39.524Z,99.90
2023-05-16T23:01:07.667Z,99.90
2023-05-16T23:04:05.705Z,99.90
2023-05-16T23:06:40.299Z,99.90
2023-05-16T23:09:23.568Z,99.90
2023-05-16T23:12:07.504Z,99.90
2023-05-16T23:14:52.936Z,99.90
2023-05-16T23:17:24.489Z,99.90
2023-05-16T23:20:01.821Z,99.90
2023-05-16T23:22:41.833Z,99.90
2023-05-16T23:25:16.003Z,99.90
2023-05-16T23:27:51.815Z,99.90
2023-05-16T23:30:20.135Z,99.90
2023-05-16T23:32:48.496Z,99.90
2023-05-16T23:35:18.017Z,99.90
2023-05-16T23:37:46.807Z,99.90
2023-05-16T23:40:15.272Z,99.90
2023-05-16T23:42:43.468Z,99.90
2023-05-16T23:45:13.840Z,99.90
2023-05-16T23:47:42.062Z,99.90
2023-05-16T23:50:11.371Z,99.90
2023-05-16T23:52:40.768Z,99.90
2023-05-16T23:55:10.192Z,99.90
2023-05-16T23:57:38.569Z,99.90
